Aeroporto :
LOGIN :

Iscrizione | Disclaimer

   EN    FR    IT 

 










Sommario :    VFR   VFR Marginale   IFR   IFR Intensivo   IFR Molto Intensivo
Visibilità : 
Base nubi : 
>= 8 km
>= 3000ft
5 / 8 km
1000 / 3000 ft
1500m / 5 km
500 / 1000 ft
800 / 1500m
200 / 500 ft
< 800m
< 200 ft
Simboli :   Temporali  Nebbia  Neve Forte  Precipitazioni Forti  Vento > 20 kt
SIGMETs :   Varie  Temporali  Ghiacco  Turbolenza  Onda orograficha  Ceneri Vulcaniche






- Altitudine del aeroporto : 648 ft
- Codice IATA : INI


LYNI - Nis Constantine

ULTIMO METAR :
  • 062230Z 02004KT 300V050 CAVOK 10/M12 Q1031 NOSIG

METARs OBSOLETI :
  • 062200Z 01002KT CAVOK 07/M09 Q1031 NOSIG
  • 062130Z 34004KT 300V020 CAVOK 08/M08 Q1031 NOSIG
  • 062100Z 08006KT CAVOK 10/M08 Q1031 NOSIG
  • 062030Z 09007KT 060V120 CAVOK 11/M08 Q1031 NOSIG
  • 062000Z 06013KT CAVOK 12/M08 Q1031 NOSIG
  • 061930Z 07014KT CAVOK 11/M08 Q1031 NOSIG

TAF TAF LYNI
Valido dal 06 a 18 ore il 07 a 18 ore UTC


061700Z 0618/0718 02005KT CAVOK TX18/0713Z TN03/0704Z
TEMPO 0618/0620 05015KT
BECMG 0710/0712 05014KT



MetMap, La meteo Aeronautica in un colpo d'occhio ! - Copyright ORBIFLY Dicembre 2007 - Disclaimer

ORBIFLY MET'MAP TEAM :

Programmazione e sviluppo : Alexandra Zaïnal
Concezione : Baudouin d'Aumeries
Aiuto per la programmazione : Marc-Olivier Méhu
Supporto tecnico e logistico : Manuel Goepfert
Aiuto per la traduzione : Arnaldo La Scala

Contatto : metmap@orbifly.com




FONTI E CREDITI :

   NOAA